Godman Army Air Field
KFTK : now visible

Airfield :











YOU CAN JOIN US ON...

 
LOGIN :

Register | Disclaimer

   EN    FR    IT 

 









Legend :    VFR   Marginal VFR   IFR   Intensive IFR   Very Intensive IFR
Visi :
Ceiling :
>= 8 km
>= 3000ft
5 to 8 km
1000 to 3000 ft
1500m to 5 km
500 to 1000 ft
800 to 1500m
200 to 500 ft
< 800m
< 200 ft
Symbols :   Thunderstorms  Fog  Heavy snow  Heavy precipitations  Wind > 20 kt






- Airport Elevation : 756 ft


KFTK - Godman Army Air Field

CURRENT METAR :
  • 081856Z AUTO 24007G16KT 10SM SCT048 28/14 A2974 RMK AO2 SLP067 T02820144

EXPIRED METARs :
  • 081756Z AUTO 22007KT 10SM SCT041 SCT050 26/16 A2975 RMK AO2 SLP071 T02620158 10271 20191 58014
  • 081737Z AUTO 22006KT 10SM SCT041 SCT050 27/16 A2976 RMK AO2 SLP074
  • 081656Z AUTO 24006KT 10SM BKN036 BKN047 25/16 A2978 RMK AO2 SLP081 T02540162
  • 081611Z AUTO 23009KT 10SM SCT024 SCT029 BKN038 25/17 A2979 RMK AO2 SLP085

TAF TAF KFTK
Valid from the 08 at 17:00 until the 09 at 23:00 UTC


081700Z 0817/0923 26010G15KT 9999 SCT030 QNH2963INS
BECMG 0822/0823 22009KT 9999 SCT030 QNH2958INS
BECMG 0901/0902 34010G15KT 9000 -SHRA SCT010 BKN020 520153 QNH2956INS
TEMPO 0902/0905 31030G45KT 6000 TSRAGR OVC010CB
BECMG 0906/0907 32020G30KT 9999 NSW FEW030 SCT080 520008 QNH2970INS TX27/0821Z TN09/0912Z



MET'MAP, your aeronautical weather chart ! - Copyright ORBIFLY December 2007 - Disclaimer

ORBIFLY MET'MAP TEAM :

Programming & Development : Alexandra Zaïnal
Concept & original design : Baudouin d'Aumeries
Assistance for programming : Marc-Olivier Méhu
Technical & hardware support : Manuel Goepfert

Contact : metmap@orbifly.com




SOURCES & CREDITS :

   NOAA       Earth
Advisory